CheckWX is a tool to help pilots better visualize weather data.  It is not intended as a substitute for an official pre-flight weather briefing.

07:46:24 UTC

KEKN METAR
Elkins-Randolph Co-Jennings Randolph Field Airport
Elkins, West Virginia, USA
Current

10 mins ago

KEKN 150736Z AUTO 00000KT 1/4SM FG VV002 13/12 A3028 RMK AO2 T01330117
Observed
Sep-15 @ 07:36 UTC
Visibility
1/4 SM
Flight Rules
LIFR
Conditions
Fog
Cloud Levels
  • Vertical visibility at 200' AGL
Temperature
13°C / 55°F
Dewpoint
12°C / 54°F
Humidity
94%
Altimeter
30.28" Hg
Pressure
1025.42 hPa
Previous

22 mins ago

KEKN 150724Z AUTO 00000KT 2 1/2SM BR FEW002 13/11 A3028 RMK AO2 T01330111
Observed
Sep-15 @ 07:24 UTC
Visibility
2 1/2 SM
Flight Rules
IFR
Conditions
Mist
Cloud Levels
  • Few at 200' AGL
Temperature
13°C / 55°F
Dewpoint
11°C / 52°F
Humidity
88%
Altimeter
30.28" Hg
Pressure
1025.42 hPa
Previous

55 mins ago

KEKN 150651Z AUTO 00000KT 9SM CLR 13/11 A3028 RMK AO2 SLP247 T01280111
Observed
Sep-15 @ 06:51 UTC
Visibility
9 SM
Flight Rules
VFR
Cloud Levels
  • Clear skies
Temperature
13°C / 55°F
Dewpoint
11°C / 52°F
Humidity
88%
Altimeter
30.28" Hg
Pressure
1025.42 hPa